Time;durP1;ratioP1;P1;durP2;ratioP2;P2;SDS_P1;SDS_P2;PMS_P1;PMS_P2;Temp;Humidity;BMP_temperature;BMP_pressure;BME280_temperature;BME280_humidity;BME280_pressure;Samples;Min_cycle;Max_cycle;Signal;HPM_P1;HPM_P2
2022/08/16 00:00:14;;;;;;;16.48;10.07;;;;;;;;;;4400567;32;20232;-87
2022/08/16 00:02:40;;;;;;;14.38;9.93;;;;;;;;;;4401077;32;20198;-87
2022/08/16 00:05:09;;;;;;;14.25;9.93;;;;;;;;;;4400862;32;20252;-82
2022/08/16 00:07:34;;;;;;;11.88;9.52;;;;;;;;;;4401127;32;20217;-84
2022/08/16 00:10:00;;;;;;;16.98;10.27;;;;;;;;;;4399573;32;20652;-82
2022/08/16 00:12:28;;;;;;;17.75;11.30;;;;;;;;;;4400740;32;20555;-84
2022/08/16 00:14:58;;;;;;;11.95;9.52;;;;;;;;;;4400103;32;20237;-84
2022/08/16 00:17:25;;;;;;;14.30;10.45;;;;;;;;;;4401249;32;20201;-83
2022/08/16 00:19:51;;;;;;;16.08;10.63;;;;;;;;;;4400856;32;20252;-80
2022/08/16 00:22:17;;;;;;;18.50;10.52;;;;;;;;;;4399462;32;20225;-81
2022/08/16 00:24:43;;;;;;;10.98;9.88;;;;;;;;;;4400499;32;20334;-82
2022/08/16 00:27:09;;;;;;;11.35;10.25;;;;;;;;;;4403330;32;20361;-83
2022/08/16 00:29:34;;;;;;;16.60;12.50;;;;;;;;;;4403181;32;20610;-85
2022/08/16 00:32:03;;;;;;;10.93;9.80;;;;;;;;;;4403532;32;20228;-82
2022/08/16 00:34:29;;;;;;;14.32;10.02;;;;;;;;;;4402312;32;20325;-83
2022/08/16 00:36:55;;;;;;;14.82;10.02;;;;;;;;;;4403580;32;20589;-82
2022/08/16 00:39:21;;;;;;;13.18;10.73;;;;;;;;;;4403359;32;20225;-82
2022/08/16 00:41:48;;;;;;;19.27;9.68;;;;;;;;;;4403484;32;20210;-87
2022/08/16 00:44:16;;;;;;;13.57;10.15;;;;;;;;;;4402750;32;20290;-83
2022/08/16 00:47:04;;;;;;;17.90;10.38;;;;;;;;;;4403630;32;20629;-82
2022/08/16 00:49:30;;;;;;;12.75;10.18;;;;;;;;;;4403459;32;20383;-82
2022/08/16 00:51:55;;;;;;;16.52;11.00;;;;;;;;;;4403252;32;20230;-85
2022/08/16 00:54:24;;;;;;;11.77;10.65;;;;;;;;;;4402666;32;20291;-84
2022/08/16 00:56:50;;;;;;;14.38;9.38;;;;;;;;;;4402182;32;20231;-82
2022/08/16 00:59:19;;;;;;;12.13;10.68;;;;;;;;;;4401507;32;20237;-86
2022/08/16 01:01:45;;;;;;;11.38;10.15;;;;;;;;;;4403299;32;20228;-85
2022/08/16 01:04:16;;;;;;;15.27;10.98;;;;;;;;;;4403333;32;20641;-82
2022/08/16 01:06:42;;;;;;;16.70;10.52;;;;;;;;;;4403271;32;20210;-81
2022/08/16 01:09:07;;;;;;;13.38;11.43;;;;;;;;;;4401717;32;20389;-82
2022/08/16 01:11:37;;;;;;;11.63;10.48;;;;;;;;;;4403768;32;20269;-85
2022/08/16 01:14:23;;;;;;;12.00;10.60;;;;;;;;;;4403184;32;20233;-84
2022/08/16 01:16:49;;;;;;;10.43;8.88;;;;;;;;;;4402436;32;20332;-84
2022/08/16 01:19:26;;;;;;;11.15;9.57;;;;;;;;;;4403207;32;20301;-84
2022/08/16 01:22:00;;;;;;;11.05;9.27;;;;;;;;;;4404980;32;20277;-86
2022/08/16 01:24:32;;;;;;;12.48;9.85;;;;;;;;;;4415606;32;20243;-82
2022/08/16 01:27:08;;;;;;;12.23;10.07;;;;;;;;;;4411278;32;20251;-82
2022/08/16 01:29:58;;;;;;;14.23;9.15;;;;;;;;;;4410939;32;20217;-83
2022/08/16 01:32:24;;;;;;;18.08;9.75;;;;;;;;;;4408462;32;20213;-84
2022/08/16 01:34:49;;;;;;;14.68;8.98;;;;;;;;;;4401503;32;20436;-85
2022/08/16 01:37:15;;;;;;;9.93;8.93;;;;;;;;;;4402371;32;20194;-85
2022/08/16 01:39:41;;;;;;;19.08;9.27;;;;;;;;;;4388409;32;20252;-83
2022/08/16 01:42:10;;;;;;;14.63;10.15;;;;;;;;;;4402310;32;20202;-85
2022/08/16 01:44:37;;;;;;;10.75;9.48;;;;;;;;;;4402850;32;20230;-83
2022/08/16 01:47:03;;;;;;;10.23;9.23;;;;;;;;;;4404136;32;20347;-85
2022/08/16 01:49:36;;;;;;;11.52;9.13;;;;;;;;;;4410118;32;20661;-81
2022/08/16 01:52:06;;;;;;;19.77;10.63;;;;;;;;;;4416404;32;20301;-81
2022/08/16 01:54:32;;;;;;;12.20;9.68;;;;;;;;;;4415930;32;20202;-83
2022/08/16 01:57:00;;;;;;;18.40;9.05;;;;;;;;;;4415097;32;20268;-82
2022/08/16 01:59:26;;;;;;;12.55;10.43;;;;;;;;;;4407737;32;20310;-84
2022/08/16 02:01:52;;;;;;;14.35;11.25;;;;;;;;;;4404510;32;20284;-82
2022/08/16 02:04:22;;;;;;;13.45;10.60;;;;;;;;;;4403756;32;20238;-82
2022/08/16 02:06:48;;;;;;;19.12;9.82;;;;;;;;;;4403596;32;20288;-82
2022/08/16 02:09:14;;;;;;;17.73;11.05;;;;;;;;;;4403009;32;20228;-84
2022/08/16 02:11:43;;;;;;;15.48;12.15;;;;;;;;;;4403584;32;20225;-87
2022/08/16 02:14:10;;;;;;;13.75;10.88;;;;;;;;;;4401262;32;20708;-84
2022/08/16 02:16:38;;;;;;;15.07;10.32;;;;;;;;;;4402183;32;20942;-82
2022/08/16 02:19:04;;;;;;;14.68;9.82;;;;;;;;;;4401940;32;20232;-83
2022/08/16 02:21:30;;;;;;;12.30;10.18;;;;;;;;;;4401840;32;20737;-81
2022/08/16 02:23:56;;;;;;;20.70;9.68;;;;;;;;;;4401801;32;20261;-85
2022/08/16 02:26:21;;;;;;;13.48;10.68;;;;;;;;;;4401914;32;20232;-86
2022/08/16 02:28:48;;;;;;;13.82;10.32;;;;;;;;;;4400465;32;20621;-84
2022/08/16 02:31:14;;;;;;;14.85;10.23;;;;;;;;;;4401908;32;20292;-85
2022/08/16 02:33:42;;;;;;;13.38;11.00;;;;;;;;;;4401172;32;20290;-82
2022/08/16 02:36:11;;;;;;;12.15;10.90;;;;;;;;;;4402008;32;20206;-82
2022/08/16 02:38:38;;;;;;;23.17;11.80;;;;;;;;;;4401298;32;20254;-83
2022/08/16 02:41:05;;;;;;;12.10;10.27;;;;;;;;;;4401617;32;20251;-82
2022/08/16 02:43:33;;;;;;;12.77;10.57;;;;;;;;;;4401178;32;20606;-83
2022/08/16 02:46:00;;;;;;;16.55;12.07;;;;;;;;;;4401228;32;20295;-82
2022/08/16 02:48:27;;;;;;;13.98;12.15;;;;;;;;;;4401787;32;20764;-82
2022/08/16 02:50:52;;;;;;;17.52;12.20;;;;;;;;;;4401162;32;20658;-84
2022/08/16 02:53:18;;;;;;;15.35;11.07;;;;;;;;;;4401100;32;20252;-84
2022/08/16 02:55:44;;;;;;;13.52;12.05;;;;;;;;;;4401122;32;20558;-83
2022/08/16 02:58:10;;;;;;;18.62;12.48;;;;;;;;;;4400916;32;20583;-83
2022/08/16 03:00:37;;;;;;;16.60;10.98;;;;;;;;;;4401678;32;20252;-82
2022/08/16 03:03:03;;;;;;;17.85;11.77;;;;;;;;;;4401691;32;20237;-83
2022/08/16 03:05:29;;;;;;;13.52;11.32;;;;;;;;;;4401683;32;20645;-87
2022/08/16 03:07:57;;;;;;;15.50;12.40;;;;;;;;;;4401527;32;20255;-81
2022/08/16 03:10:22;;;;;;;18.83;11.40;;;;;;;;;;4401308;32;20652;-82
2022/08/16 03:12:49;;;;;;;16.05;11.45;;;;;;;;;;4401385;32;20351;-84
2022/08/16 03:15:16;;;;;;;24.50;12.85;;;;;;;;;;4400447;32;20598;-82
2022/08/16 03:17:42;;;;;;;19.65;12.75;;;;;;;;;;4401248;32;20256;-84
2022/08/16 03:20:11;;;;;;;18.45;12.52;;;;;;;;;;4401148;32;20226;-82
2022/08/16 03:22:38;;;;;;;19.17;11.73;;;;;;;;;;4401114;32;20238;-80
2022/08/16 03:25:06;;;;;;;14.18;11.27;;;;;;;;;;4400150;32;20226;-82
2022/08/16 03:27:32;;;;;;;13.15;11.68;;;;;;;;;;4401520;32;20278;-82
2022/08/16 03:30:06;;;;;;;16.42;13.00;;;;;;;;;;4400849;32;20225;-82
2022/08/16 03:32:34;;;;;;;16.40;12.93;;;;;;;;;;4400145;32;20237;-85
2022/08/16 03:35:00;;;;;;;16.92;12.70;;;;;;;;;;4401086;32;20217;-83
2022/08/16 03:37:25;;;;;;;25.25;11.98;;;;;;;;;;4401128;32;20200;-83
2022/08/16 03:39:51;;;;;;;26.33;12.13;;;;;;;;;;4400963;32;20221;-82
2022/08/16 03:42:18;;;;;;;21.48;14.43;;;;;;;;;;4400511;32;20493;-83
2022/08/16 03:44:45;;;;;;;18.40;12.40;;;;;;;;;;4399462;32;20658;-82
2022/08/16 03:47:10;;;;;;;15.88;12.35;;;;;;;;;;4400345;32;20837;-84
2022/08/16 03:49:36;;;;;;;15.77;12.45;;;;;;;;;;4400391;32;20244;-84
2022/08/16 03:52:02;;;;;;;26.92;13.00;;;;;;;;;;4399918;32;20232;-83
2022/08/16 03:54:27;;;;;;;15.30;12.25;;;;;;;;;;4399999;32;20265;-81
2022/08/16 03:56:53;;;;;;;21.67;13.10;;;;;;;;;;4400357;32;20327;-83
2022/08/16 03:59:18;;;;;;;15.63;11.77;;;;;;;;;;4398510;32;20312;-82
2022/08/16 04:01:44;;;;;;;17.10;13.05;;;;;;;;;;4402540;32;20619;-84
2022/08/16 04:04:09;;;;;;;17.05;11.75;;;;;;;;;;4403174;32;20263;-82
2022/08/16 04:06:35;;;;;;;17.58;11.82;;;;;;;;;;4403480;32;20193;-85
2022/08/16 04:09:00;;;;;;;16.08;12.30;;;;;;;;;;4401454;32;20269;-83
2022/08/16 04:11:25;;;;;;;17.23;11.30;;;;;;;;;;4403141;32;20327;-83
2022/08/16 04:13:51;;;;;;;16.30;12.10;;;;;;;;;;4402255;32;20259;-82
2022/08/16 04:16:16;;;;;;;18.02;11.85;;;;;;;;;;4403161;32;20268;-85
2022/08/16 04:18:43;;;;;;;13.00;11.00;;;;;;;;;;4403146;32;20369;-86
2022/08/16 04:21:08;;;;;;;23.27;12.48;;;;;;;;;;4402824;32;20198;-82
2022/08/16 04:23:37;;;;;;;24.52;11.57;;;;;;;;;;4402931;32;20912;-81
2022/08/16 04:26:04;;;;;;;14.90;11.18;;;;;;;;;;4401326;32;20256;-81
2022/08/16 04:28:29;;;;;;;14.13;11.07;;;;;;;;;;4402281;32;20396;-84
2022/08/16 04:30:55;;;;;;;25.62;13.15;;;;;;;;;;4402992;32;20206;-81
2022/08/16 04:33:20;;;;;;;15.35;10.93;;;;;;;;;;4402693;32;20543;-82
2022/08/16 04:35:46;;;;;;;16.05;11.80;;;;;;;;;;4402314;32;20235;-83
2022/08/16 04:38:12;;;;;;;16.60;11.85;;;;;;;;;;4402346;32;20563;-85
2022/08/16 04:40:38;;;;;;;15.23;11.93;;;;;;;;;;4387391;32;20319;-84
2022/08/16 04:43:03;;;;;;;17.67;12.75;;;;;;;;;;4396938;32;20234;-82
2022/08/16 04:45:29;;;;;;;14.35;11.45;;;;;;;;;;4402592;32;20312;-82
2022/08/16 04:47:55;;;;;;;16.35;12.32;;;;;;;;;;4402830;32;20538;-82
2022/08/16 04:50:25;;;;;;;23.62;11.12;;;;;;;;;;4402451;32;20218;-83
2022/08/16 04:52:52;;;;;;;18.17;12.43;;;;;;;;;;4402111;32;20837;-82
2022/08/16 04:55:20;;;;;;;22.17;13.27;;;;;;;;;;4402181;32;20580;-82
2022/08/16 04:57:48;;;;;;;17.33;12.10;;;;;;;;;;4402354;32;20646;-82
2022/08/16 05:00:18;;;;;;;15.00;13.43;;;;;;;;;;4401858;32;20320;-81
2022/08/16 05:02:43;;;;;;;26.52;14.40;;;;;;;;;;4401651;32;20210;-81
2022/08/16 05:05:10;;;;;;;15.02;13.13;;;;;;;;;;4402287;32;20330;-81
2022/08/16 05:07:35;;;;;;;25.77;12.98;;;;;;;;;;4402025;32;20859;-84
2022/08/16 05:10:01;;;;;;;21.48;13.38;;;;;;;;;;4401864;32;20248;-82
2022/08/16 05:12:27;;;;;;;23.23;13.50;;;;;;;;;;4400475;32;20206;-83
2022/08/16 05:14:52;;;;;;;22.48;13.40;;;;;;;;;;4399103;32;20241;-84
2022/08/16 05:17:18;;;;;;;16.70;12.40;;;;;;;;;;4400850;32;20202;-87
2022/08/16 05:19:44;;;;;;;18.60;13.27;;;;;;;;;;4400024;32;20294;-84
2022/08/16 05:22:09;;;;;;;26.60;13.18;;;;;;;;;;4399677;32;20359;-84
2022/08/16 05:24:35;;;;;;;14.30;12.20;;;;;;;;;;4398723;32;20283;-85
2022/08/16 05:27:00;;;;;;;25.25;12.70;;;;;;;;;;4400186;32;20244;-82
2022/08/16 05:29:25;;;;;;;18.67;12.82;;;;;;;;;;4399349;32;20826;-83
2022/08/16 05:31:51;;;;;;;24.98;13.10;;;;;;;;;;4401883;32;20202;-84
2022/08/16 05:34:20;;;;;;;14.98;11.85;;;;;;;;;;4402110;32;20885;-84
2022/08/16 05:36:48;;;;;;;28.62;15.82;;;;;;;;;;4401069;32;20209;-83
2022/08/16 05:39:14;;;;;;;37.33;17.50;;;;;;;;;;4400091;32;20275;-80
2022/08/16 05:41:39;;;;;;;19.20;12.73;;;;;;;;;;4400573;32;20721;-85
2022/08/16 05:44:05;;;;;;;20.70;12.43;;;;;;;;;;4399509;32;20221;-86
2022/08/16 05:46:31;;;;;;;18.62;12.55;;;;;;;;;;4400594;32;20741;-85
2022/08/16 05:48:57;;;;;;;18.65;12.60;;;;;;;;;;4401297;32;20276;-86
2022/08/16 05:51:23;;;;;;;18.10;12.27;;;;;;;;;;4402290;32;20209;-82
2022/08/16 05:53:48;;;;;;;15.85;12.02;;;;;;;;;;4402380;32;20381;-83
2022/08/16 05:56:14;;;;;;;24.25;13.70;;;;;;;;;;4402093;32;20198;-85
2022/08/16 05:58:39;;;;;;;27.02;14.98;;;;;;;;;;4401349;32;20678;-85
2022/08/16 06:01:05;;;;;;;17.35;13.25;;;;;;;;;;4401858;32;20228;-83
2022/08/16 06:03:31;;;;;;;15.55;12.07;;;;;;;;;;4401754;32;20247;-81
2022/08/16 06:05:57;;;;;;;19.77;13.18;;;;;;;;;;4400315;32;20258;-87
2022/08/16 06:08:22;;;;;;;15.32;11.63;;;;;;;;;;4401150;32;20252;-83
2022/08/16 06:10:48;;;;;;;17.92;12.60;;;;;;;;;;4401526;32;20268;-86
2022/08/16 06:13:14;;;;;;;16.73;11.73;;;;;;;;;;4402313;32;20630;-87
2022/08/16 06:15:39;;;;;;;25.15;12.23;;;;;;;;;;4402710;32;20206;-86
2022/08/16 06:18:05;;;;;;;17.50;12.05;;;;;;;;;;4401678;32;20210;-86
2022/08/16 06:20:30;;;;;;;15.70;10.82;;;;;;;;;;4401986;32;20194;-84
2022/08/16 06:22:56;;;;;;;13.13;10.48;;;;;;;;;;4401161;32;20197;-84
2022/08/16 06:25:24;;;;;;;24.58;10.90;;;;;;;;;;4401246;32;20209;-86
2022/08/16 06:27:51;;;;;;;23.48;10.25;;;;;;;;;;4401322;32;20323;-90
2022/08/16 06:30:16;;;;;;;10.45;9.45;;;;;;;;;;4401920;32;20357;-84
2022/08/16 06:32:42;;;;;;;17.42;11.00;;;;;;;;;;4402133;32;20230;-90
2022/08/16 06:35:08;;;;;;;13.82;10.90;;;;;;;;;;4401807;32;20241;-88
2022/08/16 06:37:34;;;;;;;15.35;10.68;;;;;;;;;;4400331;32;20198;-89
2022/08/16 06:39:59;;;;;;;13.57;10.07;;;;;;;;;;4400163;32;20256;-90
2022/08/16 06:42:25;;;;;;;17.00;11.45;;;;;;;;;;4400809;32;20197;-88
2022/08/16 06:44:51;;;;;;;12.25;10.95;;;;;;;;;;4400750;32;20222;-90
2022/08/16 06:47:17;;;;;;;19.65;11.18;;;;;;;;;;4399914;32;20250;-87
2022/08/16 06:49:42;;;;;;;17.23;11.77;;;;;;;;;;4401582;32;20287;-89
2022/08/16 06:52:08;;;;;;;15.85;10.98;;;;;;;;;;4401275;32;20582;-88
2022/08/16 06:54:34;;;;;;;16.37;11.10;;;;;;;;;;4401754;32;20398;-89
2022/08/16 06:57:00;;;;;;;19.12;10.60;;;;;;;;;;4400964;32;20875;-90
2022/08/16 06:59:26;;;;;;;14.25;9.35;;;;;;;;;;4401459;32;20244;-90
2022/08/16 07:01:51;;;;;;;15.77;9.88;;;;;;;;;;4401404;32;20205;-85
2022/08/16 07:04:17;;;;;;;12.63;10.70;;;;;;;;;;4400963;32;20656;-83
2022/08/16 07:06:43;;;;;;;15.57;9.98;;;;;;;;;;4398380;32;20794;-82
2022/08/16 07:09:10;;;;;;;12.07;10.32;;;;;;;;;;4400558;32;20316;-82
2022/08/16 07:11:35;;;;;;;14.85;10.90;;;;;;;;;;4399994;32;20226;-84
2022/08/16 07:14:01;;;;;;;13.65;11.43;;;;;;;;;;4398289;32;20238;-80
2022/08/16 07:16:26;;;;;;;12.45;11.15;;;;;;;;;;4399965;32;20595;-81
2022/08/16 07:18:52;;;;;;;18.80;11.05;;;;;;;;;;4400362;32;20229;-83
2022/08/16 07:21:17;;;;;;;18.08;10.32;;;;;;;;;;4400318;32;20542;-83
2022/08/16 07:23:46;;;;;;;22.17;11.55;;;;;;;;;;4400323;32;20236;-83
2022/08/16 07:26:22;;;;;;;21.70;11.32;;;;;;;;;;4400382;32;20244;-82
2022/08/16 07:28:50;;;;;;;14.95;11.70;;;;;;;;;;4399618;32;20225;-81
2022/08/16 07:31:17;;;;;;;17.50;10.90;;;;;;;;;;4400252;32;20258;-83
2022/08/16 07:33:43;;;;;;;14.68;12.85;;;;;;;;;;4400646;32;20225;-81
2022/08/16 07:36:10;;;;;;;14.95;11.88;;;;;;;;;;4398878;32;20712;-83
2022/08/16 07:38:35;;;;;;;15.88;12.10;;;;;;;;;;4400548;32;20285;-85
2022/08/16 07:41:01;;;;;;;15.05;11.85;;;;;;;;;;4400270;32;20205;-84
2022/08/16 07:43:27;;;;;;;14.43;11.88;;;;;;;;;;4399330;32;20305;-82
2022/08/16 07:45:53;;;;;;;17.15;11.73;;;;;;;;;;4400525;32;20228;-81
2022/08/16 07:48:18;;;;;;;14.68;12.27;;;;;;;;;;4400454;32;20305;-82
2022/08/16 07:50:45;;;;;;;21.48;12.05;;;;;;;;;;4400212;32;20278;-83
2022/08/16 07:53:11;;;;;;;17.60;11.32;;;;;;;;;;4400017;32;20272;-82
2022/08/16 07:55:37;;;;;;;15.88;11.35;;;;;;;;;;4399932;32;20651;-83
2022/08/16 07:58:03;;;;;;;16.62;11.75;;;;;;;;;;4399429;32;20275;-84
2022/08/16 08:00:29;;;;;;;13.82;11.10;;;;;;;;;;4400295;32;20276;-83
2022/08/16 08:02:55;;;;;;;12.63;11.32;;;;;;;;;;4399262;32;20271;-83
2022/08/16 08:05:22;;;;;;;18.17;11.82;;;;;;;;;;4400101;32;20283;-82
2022/08/16 08:07:48;;;;;;;19.00;10.85;;;;;;;;;;4397637;32;20248;-82
2022/08/16 08:10:14;;;;;;;33.72;12.73;;;;;;;;;;4399422;32;20251;-82
2022/08/16 08:12:41;;;;;;;17.75;12.63;;;;;;;;;;4399162;32;20857;-85
2022/08/16 08:15:09;;;;;;;19.02;12.55;;;;;;;;;;4399812;32;20284;-82
2022/08/16 08:17:37;;;;;;;15.93;12.43;;;;;;;;;;4400340;32;20243;-80
2022/08/16 08:20:06;;;;;;;17.73;12.85;;;;;;;;;;4387083;32;20225;-84
2022/08/16 08:22:32;;;;;;;15.80;11.43;;;;;;;;;;4400153;32;20292;-85
2022/08/16 08:25:01;;;;;;;13.77;10.95;;;;;;;;;;4399706;32;20292;-81
2022/08/16 08:27:28;;;;;;;16.58;12.07;;;;;;;;;;4400054;32;20232;-83
2022/08/16 08:29:54;;;;;;;13.10;11.55;;;;;;;;;;4400107;32;20255;-82
2022/08/16 08:32:20;;;;;;;17.23;12.40;;;;;;;;;;4400263;32;20198;-84
2022/08/16 08:34:48;;;;;;;14.25;11.65;;;;;;;;;;4400527;32;21067;-85
2022/08/16 08:37:14;;;;;;;18.35;12.30;;;;;;;;;;4399804;32;20261;-84
2022/08/16 08:39:39;;;;;;;17.92;11.80;;;;;;;;;;4398853;32;20267;-83
2022/08/16 08:42:06;;;;;;;22.10;11.65;;;;;;;;;;4397918;32;20210;-82
2022/08/16 08:44:33;;;;;;;24.75;12.75;;;;;;;;;;4390296;32;20242;-80
2022/08/16 08:47:02;;;;;;;14.18;10.38;;;;;;;;;;4390092;32;20209;-82
2022/08/16 08:49:29;;;;;;;12.23;10.90;;;;;;;;;;4402928;32;20587;-83
2022/08/16 08:51:55;;;;;;;12.48;9.48;;;;;;;;;;4402268;32;20291;-83
2022/08/16 08:54:21;;;;;;;14.63;11.50;;;;;;;;;;4401012;32;20596;-83
2022/08/16 08:56:46;;;;;;;14.35;11.00;;;;;;;;;;4402429;32;20340;-82
2022/08/16 08:59:12;;;;;;;13.23;9.68;;;;;;;;;;4397622;32;20296;-83
2022/08/16 09:01:39;;;;;;;14.38;10.68;;;;;;;;;;4388114;32;20244;-81
2022/08/16 09:04:06;;;;;;;28.58;10.57;;;;;;;;;;4398125;32;20608;-81
2022/08/16 09:06:32;;;;;;;27.73;11.27;;;;;;;;;;4403145;32;20255;-83
2022/08/16 09:08:59;;;;;;;18.55;11.10;;;;;;;;;;4402293;32;20297;-84
2022/08/16 09:11:25;;;;;;;17.65;10.73;;;;;;;;;;4400795;32;20222;-83
2022/08/16 09:13:50;;;;;;;14.95;10.25;;;;;;;;;;4401853;32;20233;-82
2022/08/16 09:16:16;;;;;;;16.35;9.77;;;;;;;;;;4409138;32;20637;-80
2022/08/16 09:18:42;;;;;;;11.43;10.27;;;;;;;;;;4413224;32;20257;-82
2022/08/16 09:21:08;;;;;;;13.13;9.27;;;;;;;;;;4410376;32;20248;-83
2022/08/16 09:23:34;;;;;;;11.30;10.18;;;;;;;;;;4413781;32;20243;-79
2022/08/16 09:26:01;;;;;;;11.63;9.88;;;;;;;;;;4405477;32;20233;-83
2022/08/16 09:28:27;;;;;;;15.88;10.73;;;;;;;;;;4401865;32;20298;-83
2022/08/16 09:30:53;;;;;;;14.13;10.35;;;;;;;;;;4402575;32;20255;-81
2022/08/16 09:33:19;;;;;;;11.43;9.98;;;;;;;;;;4401922;32;20217;-85
2022/08/16 09:35:46;;;;;;;18.23;10.35;;;;;;;;;;4400979;32;20279;-85
2022/08/16 09:38:12;;;;;;;12.82;9.73;;;;;;;;;;4401887;32;20205;-81
2022/08/16 09:40:45;;;;;;;13.13;9.32;;;;;;;;;;4402028;32;20238;-83
2022/08/16 09:43:14;;;;;;;13.38;9.70;;;;;;;;;;4404087;32;20202;-84
2022/08/16 09:45:41;;;;;;;14.23;9.35;;;;;;;;;;4403260;32;20249;-82
2022/08/16 09:48:08;;;;;;;16.42;8.75;;;;;;;;;;4402621;32;20202;-84
2022/08/16 09:50:35;;;;;;;14.10;8.95;;;;;;;;;;4402558;32;20636;-83
2022/08/16 09:53:03;;;;;;;9.40;7.97;;;;;;;;;;4417121;32;20223;-81
2022/08/16 09:55:29;;;;;;;11.43;8.90;;;;;;;;;;4417027;32;20323;-83
2022/08/16 09:57:54;;;;;;;11.95;7.95;;;;;;;;;;4416392;32;20224;-83
2022/08/16 10:00:20;;;;;;;9.10;8.20;;;;;;;;;;4417150;32;20282;-83
2022/08/16 10:02:47;;;;;;;11.52;8.32;;;;;;;;;;4412581;32;20680;-85
2022/08/16 10:05:12;;;;;;;10.73;8.57;;;;;;;;;;4401386;32;20272;-84
2022/08/16 10:07:38;;;;;;;11.02;8.25;;;;;;;;;;4402253;32;20221;-83
2022/08/16 10:10:05;;;;;;;9.25;8.35;;;;;;;;;;4402466;32;20217;-83
2022/08/16 10:15:21;;;;;;;10.98;5.72;;;;;;;;;;4402047;32;20276;-82
2022/08/16 10:17:52;;;;;;;7.20;5.32;;;;;;;;;;4402296;32;20185;-82
2022/08/16 10:20:18;;;;;;;5.68;3.97;;;;;;;;;;4402182;32;20284;-83
2022/08/16 10:22:44;;;;;;;13.15;3.87;;;;;;;;;;4401690;32;20248;-82
2022/08/16 10:25:12;;;;;;;7.93;4.37;;;;;;;;;;4401134;32;20221;-82
2022/08/16 10:27:37;;;;;;;5.75;3.87;;;;;;;;;;4401212;32;20225;-83
2022/08/16 10:30:05;;;;;;;13.88;5.15;;;;;;;;;;4401647;32;20252;-83
2022/08/16 10:32:30;;;;;;;6.70;5.15;;;;;;;;;;4400636;32;20606;-82
2022/08/16 10:34:56;;;;;;;10.52;4.20;;;;;;;;;;4400556;32;20206;-83
2022/08/16 10:37:23;;;;;;;9.45;4.07;;;;;;;;;;4400431;32;20229;-83
2022/08/16 10:39:48;;;;;;;9.07;4.07;;;;;;;;;;4399476;32;20217;-83
2022/08/16 10:42:16;;;;;;;7.65;4.62;;;;;;;;;;4400635;32;20594;-82
2022/08/16 10:44:41;;;;;;;11.75;3.28;;;;;;;;;;4401366;32;20228;-85
2022/08/16 10:47:07;;;;;;;6.35;3.70;;;;;;;;;;4400206;32;20225;-84
2022/08/16 10:49:33;;;;;;;8.00;3.47;;;;;;;;;;4402241;32;20247;-83
2022/08/16 10:51:58;;;;;;;4.85;3.58;;;;;;;;;;4401429;32;20743;-84
2022/08/16 10:54:24;;;;;;;4.95;3.65;;;;;;;;;;4401403;32;20213;-84
2022/08/16 10:56:49;;;;;;;6.65;3.87;;;;;;;;;;4401661;32;20268;-84
2022/08/16 10:59:15;;;;;;;7.32;4.50;;;;;;;;;;4402738;32;20659;-84
2022/08/16 11:01:41;;;;;;;5.85;3.67;;;;;;;;;;4402243;32;20237;-85
2022/08/16 11:04:06;;;;;;;4.12;3.45;;;;;;;;;;4402345;32;20660;-86
2022/08/16 11:06:33;;;;;;;7.47;4.55;;;;;;;;;;4401211;32;20287;-82
2022/08/16 11:08:59;;;;;;;5.18;4.15;;;;;;;;;;4400489;32;20740;-83
2022/08/16 11:11:25;;;;;;;5.53;3.20;;;;;;;;;;4399830;32;20234;-83
2022/08/16 11:13:51;;;;;;;5.32;4.22;;;;;;;;;;4399334;32;20258;-83
2022/08/16 11:16:17;;;;;;;8.23;4.00;;;;;;;;;;4401016;32;20224;-84
2022/08/16 11:18:43;;;;;;;5.10;3.17;;;;;;;;;;4401618;32;20268;-84
2022/08/16 11:21:09;;;;;;;6.82;4.07;;;;;;;;;;4401227;32;20269;-85
2022/08/16 11:23:35;;;;;;;10.55;4.25;;;;;;;;;;4399403;32;20236;-85
2022/08/16 11:26:01;;;;;;;5.53;4.35;;;;;;;;;;4399082;32;20326;-84
2022/08/16 11:28:26;;;;;;;10.27;4.12;;;;;;;;;;4399475;32;20307;-84
2022/08/16 11:30:52;;;;;;;8.93;4.15;;;;;;;;;;4400822;32;20214;-84
2022/08/16 11:33:18;;;;;;;6.90;4.20;;;;;;;;;;4401009;32;20240;-85
2022/08/16 11:35:44;;;;;;;7.90;4.00;;;;;;;;;;4400660;32;20221;-84
2022/08/16 11:38:16;;;;;;;5.93;3.58;;;;;;;;;;4398609;32;20334;-85
2022/08/16 11:40:55;;;;;;;5.62;3.58;;;;;;;;;;4385087;32;20241;-85
2022/08/16 11:43:27;;;;;;;7.97;4.70;;;;;;;;;;4396631;32;20246;-84
2022/08/16 11:45:55;;;;;;;6.20;4.37;;;;;;;;;;4399488;32;20313;-84
2022/08/16 11:48:23;;;;;;;13.88;7.90;;;;;;;;;;4400156;32;20629;-83
2022/08/16 11:50:49;;;;;;;9.65;4.03;;;;;;;;;;4401838;32;20286;-84
2022/08/16 11:53:15;;;;;;;9.93;4.25;;;;;;;;;;4408423;32;20229;-83
2022/08/16 11:55:42;;;;;;;4.75;3.78;;;;;;;;;;4400522;32;20260;-84
2022/08/16 11:58:08;;;;;;;7.70;4.10;;;;;;;;;;4400435;32;20314;-85
2022/08/16 12:00:36;;;;;;;7.10;3.15;;;;;;;;;;4400775;32;20250;-83
2022/08/16 12:03:02;;;;;;;7.57;3.05;;;;;;;;;;4401197;32;20690;-84
2022/08/16 12:05:30;;;;;;;14.70;3.62;;;;;;;;;;4400668;32;20256;-83
2022/08/16 12:07:56;;;;;;;7.37;4.07;;;;;;;;;;4400732;32;20210;-83
2022/08/16 12:10:25;;;;;;;11.88;3.97;;;;;;;;;;4400347;32;20813;-84
2022/08/16 12:12:51;;;;;;;7.15;3.58;;;;;;;;;;4399406;32;20221;-83
2022/08/16 12:15:18;;;;;;;7.05;3.53;;;;;;;;;;4400100;32;20337;-83
2022/08/16 12:17:43;;;;;;;8.32;4.20;;;;;;;;;;4399834;32;20360;-84
2022/08/16 12:20:15;;;;;;;10.95;3.97;;;;;;;;;;4400881;32;20281;-83
2022/08/16 12:22:41;;;;;;;7.80;4.30;;;;;;;;;;4402938;32;20523;-84
2022/08/16 12:25:11;;;;;;;7.05;4.30;;;;;;;;;;4402806;32;20361;-84
2022/08/16 12:27:37;;;;;;;8.25;4.28;;;;;;;;;;4403427;32;20612;-89
2022/08/16 12:30:04;;;;;;;7.85;3.87;;;;;;;;;;4402369;32;20249;-85
2022/08/16 12:32:29;;;;;;;10.60;3.90;;;;;;;;;;4402234;32;20355;-87
2022/08/16 12:34:55;;;;;;;12.23;4.07;;;;;;;;;;4403845;32;20228;-87
2022/08/16 12:37:21;;;;;;;9.02;4.18;;;;;;;;;;4394586;32;20237;-86
2022/08/16 12:39:47;;;;;;;7.20;4.45;;;;;;;;;;4388403;32;20221;-87
2022/08/16 12:42:12;;;;;;;5.93;4.22;;;;;;;;;;4399616;32;20241;-88
2022/08/16 12:44:40;;;;;;;6.70;4.30;;;;;;;;;;4401760;32;20402;-87
2022/08/16 12:49:51;;;;;;;10.48;3.95;;;;;;;;;;4402862;32;20298;-87
2022/08/16 12:52:17;;;;;;;4.80;4.00;;;;;;;;;;4413367;32;20245;-87
2022/08/16 12:54:42;;;;;;;5.00;3.33;;;;;;;;;;4405846;32;20222;-87
2022/08/16 12:57:08;;;;;;;8.57;4.30;;;;;;;;;;4403019;32;20295;-87
2022/08/16 12:59:34;;;;;;;7.47;4.22;;;;;;;;;;4403037;32;20194;-86
2022/08/16 13:02:00;;;;;;;4.62;3.35;;;;;;;;;;4402583;32;20305;-86
2022/08/16 13:04:28;;;;;;;10.98;4.07;;;;;;;;;;4404068;32;20194;-86
2022/08/16 13:06:54;;;;;;;7.10;3.95;;;;;;;;;;4402957;32;20314;-86
2022/08/16 13:09:24;;;;;;;7.37;5.07;;;;;;;;;;4401643;32;20320;-85
2022/08/16 13:12:01;;;;;;;8.95;3.83;;;;;;;;;;4402593;32;20365;-87
2022/08/16 13:14:36;;;;;;;9.73;4.60;;;;;;;;;;4403865;32;20294;-87
2022/08/16 13:17:05;;;;;;;9.20;3.62;;;;;;;;;;4403376;32;20259;-87
2022/08/16 13:19:31;;;;;;;14.32;4.45;;;;;;;;;;4403099;32;20226;-85
2022/08/16 13:21:56;;;;;;;11.10;4.10;;;;;;;;;;4403034;32;20331;-85
2022/08/16 13:24:23;;;;;;;10.00;3.78;;;;;;;;;;4401613;32;20230;-88
2022/08/16 13:26:52;;;;;;;7.90;4.70;;;;;;;;;;4403826;32;20276;-85
2022/08/16 13:29:17;;;;;;;7.00;4.62;;;;;;;;;;4404050;32;20249;-87
2022/08/16 13:31:42;;;;;;;12.30;4.55;;;;;;;;;;4403474;32;20505;-86
2022/08/16 13:34:08;;;;;;;9.60;4.18;;;;;;;;;;4402017;32;20237;-85
2022/08/16 13:36:33;;;;;;;5.78;3.55;;;;;;;;;;4402136;32;20857;-87
2022/08/16 13:39:00;;;;;;;8.68;3.83;;;;;;;;;;4402427;32;20317;-84
2022/08/16 13:41:26;;;;;;;12.73;3.78;;;;;;;;;;4401328;32;20229;-84
2022/08/16 13:43:53;;;;;;;6.35;3.53;;;;;;;;;;4402354;32;20328;-84
2022/08/16 13:46:18;;;;;;;6.60;3.50;;;;;;;;;;4402487;32;20259;-84
2022/08/16 13:48:44;;;;;;;6.97;3.90;;;;;;;;;;4403203;32;20288;-84
2022/08/16 13:51:12;;;;;;;8.30;3.78;;;;;;;;;;4405688;32;20279;-85
2022/08/16 13:53:38;;;;;;;5.87;4.57;;;;;;;;;;4410383;32;20602;-85
2022/08/16 13:56:05;;;;;;;6.55;3.95;;;;;;;;;;4401103;32;20325;-85
2022/08/16 13:58:30;;;;;;;8.10;3.75;;;;;;;;;;4400607;32;20686;-83
2022/08/16 14:00:56;;;;;;;11.45;3.70;;;;;;;;;;4401065;32;20235;-86
2022/08/16 14:03:22;;;;;;;7.78;3.72;;;;;;;;;;4403380;32;20217;-89
2022/08/16 14:05:50;;;;;;;7.97;3.53;;;;;;;;;;4401238;32;20244;-86
2022/08/16 14:08:16;;;;;;;5.15;3.42;;;;;;;;;;4402108;32;20277;-86
2022/08/16 14:10:42;;;;;;;5.72;3.60;;;;;;;;;;4401829;32;20214;-89
2022/08/16 14:13:07;;;;;;;6.60;3.28;;;;;;;;;;4387182;32;20245;-87
2022/08/16 14:15:33;;;;;;;10.93;4.53;;;;;;;;;;4395989;32;20288;-86
2022/08/16 14:17:59;;;;;;;12.75;3.78;;;;;;;;;;4401668;32;20425;-86
2022/08/16 14:20:24;;;;;;;11.32;3.40;;;;;;;;;;4399910;32;20252;-86
2022/08/16 14:22:51;;;;;;;10.10;4.05;;;;;;;;;;4400372;32;20287;-87
2022/08/16 14:25:18;;;;;;;9.57;3.28;;;;;;;;;;4397193;32;20637;-86
2022/08/16 14:27:45;;;;;;;9.68;3.37;;;;;;;;;;4402646;32;20315;-87